sensor_id;sensor_type;location;lat;lon;timestamp;P1;durP1;ratioP1;P2;durP2;ratioP2
3274;SDS011;1649;53.672;10.064;2023-04-10T00:01:38;50.30;;;27.50;;
3274;SDS011;1649;53.672;10.064;2023-04-10T00:04:04;53.83;;;30.30;;
3274;SDS011;1649;53.672;10.064;2023-04-10T00:06:30;52.53;;;28.53;;
3274;SDS011;1649;53.672;10.064;2023-04-10T00:08:56;55.00;;;28.60;;
3274;SDS011;1649;53.672;10.064;2023-04-10T00:11:23;50.80;;;28.90;;
3274;SDS011;1649;53.672;10.064;2023-04-10T00:13:49;60.23;;;30.70;;
3274;SDS011;1649;53.672;10.064;2023-04-10T00:16:14;52.63;;;28.70;;
3274;SDS011;1649;53.672;10.064;2023-04-10T00:18:40;53.03;;;30.20;;
3274;SDS011;1649;53.672;10.064;2023-04-10T00:21:05;58.40;;;29.60;;
3274;SDS011;1649;53.672;10.064;2023-04-10T00:23:31;53.97;;;29.43;;
3274;SDS011;1649;53.672;10.064;2023-04-10T00:25:58;54.53;;;30.03;;
3274;SDS011;1649;53.672;10.064;2023-04-10T00:28:25;54.13;;;30.93;;
3274;SDS011;1649;53.672;10.064;2023-04-10T00:30:50;52.40;;;30.83;;
3274;SDS011;1649;53.672;10.064;2023-04-10T00:33:16;55.27;;;29.17;;
3274;SDS011;1649;53.672;10.064;2023-04-10T00:35:41;56.67;;;30.27;;
3274;SDS011;1649;53.672;10.064;2023-04-10T00:38:07;61.20;;;30.70;;
3274;SDS011;1649;53.672;10.064;2023-04-10T00:40:32;58.57;;;31.30;;
3274;SDS011;1649;53.672;10.064;2023-04-10T00:42:58;56.53;;;31.90;;
3274;SDS011;1649;53.672;10.064;2023-04-10T00:45:24;56.50;;;30.87;;
3274;SDS011;1649;53.672;10.064;2023-04-10T00:47:50;62.03;;;33.07;;
3274;SDS011;1649;53.672;10.064;2023-04-10T00:50:15;54.33;;;29.30;;
3274;SDS011;1649;53.672;10.064;2023-04-10T00:52:41;58.07;;;31.60;;
3274;SDS011;1649;53.672;10.064;2023-04-10T00:55:07;51.40;;;28.33;;
3274;SDS011;1649;53.672;10.064;2023-04-10T00:57:33;52.87;;;29.30;;
3274;SDS011;1649;53.672;10.064;2023-04-10T00:59:59;59.17;;;29.67;;
3274;SDS011;1649;53.672;10.064;2023-04-10T01:02:25;50.67;;;30.20;;
3274;SDS011;1649;53.672;10.064;2023-04-10T01:04:50;58.87;;;29.67;;
3274;SDS011;1649;53.672;10.064;2023-04-10T01:07:21;60.20;;;30.80;;
3274;SDS011;1649;53.672;10.064;2023-04-10T01:10:12;59.90;;;31.43;;
3274;SDS011;1649;53.672;10.064;2023-04-10T01:13:07;49.93;;;26.87;;
3274;SDS011;1649;53.672;10.064;2023-04-10T01:15:45;57.47;;;30.63;;
3274;SDS011;1649;53.672;10.064;2023-04-10T01:20:55;52.97;;;29.90;;
3274;SDS011;1649;53.672;10.064;2023-04-10T01:23:35;59.20;;;30.90;;
3274;SDS011;1649;53.672;10.064;2023-04-10T01:26:10;54.80;;;32.20;;
3274;SDS011;1649;53.672;10.064;2023-04-10T01:31:29;57.67;;;30.50;;
3274;SDS011;1649;53.672;10.064;2023-04-10T01:34:04;62.03;;;31.47;;
3274;SDS011;1649;53.672;10.064;2023-04-10T01:36:55;54.00;;;29.37;;
3274;SDS011;1649;53.672;10.064;2023-04-10T01:39:40;56.43;;;28.50;;
3274;SDS011;1649;53.672;10.064;2023-04-10T01:42:08;56.07;;;27.77;;
3274;SDS011;1649;53.672;10.064;2023-04-10T01:44:35;53.73;;;29.10;;
3274;SDS011;1649;53.672;10.064;2023-04-10T01:47:04;51.70;;;28.50;;
3274;SDS011;1649;53.672;10.064;2023-04-10T01:49:31;54.87;;;30.50;;
3274;SDS011;1649;53.672;10.064;2023-04-10T01:51:58;58.70;;;31.10;;
3274;SDS011;1649;53.672;10.064;2023-04-10T01:54:27;61.87;;;30.77;;
3274;SDS011;1649;53.672;10.064;2023-04-10T01:56:54;58.97;;;29.70;;
3274;SDS011;1649;53.672;10.064;2023-04-10T01:59:21;57.07;;;29.43;;
3274;SDS011;1649;53.672;10.064;2023-04-10T02:01:47;60.50;;;31.53;;
3274;SDS011;1649;53.672;10.064;2023-04-10T02:04:12;56.60;;;30.57;;
3274;SDS011;1649;53.672;10.064;2023-04-10T02:06:47;60.00;;;29.50;;
3274;SDS011;1649;53.672;10.064;2023-04-10T02:12:29;54.90;;;31.20;;
3274;SDS011;1649;53.672;10.064;2023-04-10T02:15:01;57.90;;;28.37;;
3274;SDS011;1649;53.672;10.064;2023-04-10T02:17:29;60.50;;;29.60;;
3274;SDS011;1649;53.672;10.064;2023-04-10T02:19:58;58.97;;;29.00;;
3274;SDS011;1649;53.672;10.064;2023-04-10T02:22:25;52.53;;;28.83;;
3274;SDS011;1649;53.672;10.064;2023-04-10T02:24:51;52.87;;;28.17;;
3274;SDS011;1649;53.672;10.064;2023-04-10T02:27:27;53.47;;;28.90;;
3274;SDS011;1649;53.672;10.064;2023-04-10T02:29:54;61.50;;;29.70;;
3274;SDS011;1649;53.672;10.064;2023-04-10T02:32:20;45.67;;;24.50;;
3274;SDS011;1649;53.672;10.064;2023-04-10T02:34:46;54.17;;;29.20;;
3274;SDS011;1649;53.672;10.064;2023-04-10T02:37:12;57.17;;;30.97;;
3274;SDS011;1649;53.672;10.064;2023-04-10T02:39:37;52.77;;;29.90;;
3274;SDS011;1649;53.672;10.064;2023-04-10T02:42:03;58.17;;;30.20;;
3274;SDS011;1649;53.672;10.064;2023-04-10T02:44:29;54.30;;;29.20;;
3274;SDS011;1649;53.672;10.064;2023-04-10T02:46:54;57.00;;;30.20;;
3274;SDS011;1649;53.672;10.064;2023-04-10T02:49:20;55.63;;;29.50;;
3274;SDS011;1649;53.672;10.064;2023-04-10T02:51:45;58.63;;;29.00;;
3274;SDS011;1649;53.672;10.064;2023-04-10T02:54:11;54.00;;;29.20;;
3274;SDS011;1649;53.672;10.064;2023-04-10T02:56:36;60.13;;;30.10;;
3274;SDS011;1649;53.672;10.064;2023-04-10T02:59:02;63.93;;;30.20;;
3274;SDS011;1649;53.672;10.064;2023-04-10T03:01:27;51.37;;;29.07;;
3274;SDS011;1649;53.672;10.064;2023-04-10T03:03:53;51.57;;;28.67;;
3274;SDS011;1649;53.672;10.064;2023-04-10T03:06:18;55.00;;;29.07;;
3274;SDS011;1649;53.672;10.064;2023-04-10T03:08:44;52.70;;;29.63;;
3274;SDS011;1649;53.672;10.064;2023-04-10T03:11:10;55.03;;;29.27;;
3274;SDS011;1649;53.672;10.064;2023-04-10T03:13:35;54.63;;;28.40;;
3274;SDS011;1649;53.672;10.064;2023-04-10T03:16:01;59.43;;;30.30;;
3274;SDS011;1649;53.672;10.064;2023-04-10T03:18:26;56.43;;;29.37;;
3274;SDS011;1649;53.672;10.064;2023-04-10T03:20:52;51.77;;;28.00;;
3274;SDS011;1649;53.672;10.064;2023-04-10T03:23:17;53.57;;;31.13;;
3274;SDS011;1649;53.672;10.064;2023-04-10T03:25:43;57.60;;;28.70;;
3274;SDS011;1649;53.672;10.064;2023-04-10T03:28:08;55.33;;;28.87;;
3274;SDS011;1649;53.672;10.064;2023-04-10T03:30:34;58.90;;;30.40;;
3274;SDS011;1649;53.672;10.064;2023-04-10T03:33:01;57.27;;;29.07;;
3274;SDS011;1649;53.672;10.064;2023-04-10T03:35:26;52.10;;;28.00;;
3274;SDS011;1649;53.672;10.064;2023-04-10T03:37:52;55.83;;;29.77;;
3274;SDS011;1649;53.672;10.064;2023-04-10T03:40:17;57.70;;;31.87;;
3274;SDS011;1649;53.672;10.064;2023-04-10T03:42:43;54.80;;;28.97;;
3274;SDS011;1649;53.672;10.064;2023-04-10T03:45:08;58.20;;;30.60;;
3274;SDS011;1649;53.672;10.064;2023-04-10T03:47:35;55.67;;;28.10;;
3274;SDS011;1649;53.672;10.064;2023-04-10T03:50:00;57.77;;;28.07;;
3274;SDS011;1649;53.672;10.064;2023-04-10T03:52:26;55.40;;;29.40;;
3274;SDS011;1649;53.672;10.064;2023-04-10T03:54:52;51.67;;;30.10;;
3274;SDS011;1649;53.672;10.064;2023-04-10T03:57:18;59.60;;;31.60;;
3274;SDS011;1649;53.672;10.064;2023-04-10T03:59:45;55.43;;;29.33;;
3274;SDS011;1649;53.672;10.064;2023-04-10T04:02:11;54.47;;;29.60;;
3274;SDS011;1649;53.672;10.064;2023-04-10T04:04:36;56.90;;;30.00;;
3274;SDS011;1649;53.672;10.064;2023-04-10T04:07:02;55.33;;;28.97;;
3274;SDS011;1649;53.672;10.064;2023-04-10T04:09:27;51.57;;;28.83;;
3274;SDS011;1649;53.672;10.064;2023-04-10T04:11:52;55.97;;;27.93;;
3274;SDS011;1649;53.672;10.064;2023-04-10T04:14:18;55.47;;;29.97;;
3274;SDS011;1649;53.672;10.064;2023-04-10T04:16:43;53.80;;;26.67;;
3274;SDS011;1649;53.672;10.064;2023-04-10T04:19:09;55.27;;;28.17;;
3274;SDS011;1649;53.672;10.064;2023-04-10T04:21:34;53.67;;;29.13;;
3274;SDS011;1649;53.672;10.064;2023-04-10T04:24:00;55.70;;;28.97;;
3274;SDS011;1649;53.672;10.064;2023-04-10T04:26:25;57.93;;;30.10;;
3274;SDS011;1649;53.672;10.064;2023-04-10T04:28:51;51.80;;;29.90;;
3274;SDS011;1649;53.672;10.064;2023-04-10T04:31:16;56.60;;;29.00;;
3274;SDS011;1649;53.672;10.064;2023-04-10T04:33:42;62.10;;;29.23;;
3274;SDS011;1649;53.672;10.064;2023-04-10T04:36:07;58.17;;;29.80;;
3274;SDS011;1649;53.672;10.064;2023-04-10T04:38:33;51.97;;;27.37;;
3274;SDS011;1649;53.672;10.064;2023-04-10T04:40:58;48.47;;;27.47;;
3274;SDS011;1649;53.672;10.064;2023-04-10T04:43:24;58.83;;;30.10;;
3274;SDS011;1649;53.672;10.064;2023-04-10T04:45:50;49.07;;;27.07;;
3274;SDS011;1649;53.672;10.064;2023-04-10T04:48:15;59.87;;;31.10;;
3274;SDS011;1649;53.672;10.064;2023-04-10T04:50:41;60.93;;;30.60;;
3274;SDS011;1649;53.672;10.064;2023-04-10T04:53:07;61.17;;;27.90;;
3274;SDS011;1649;53.672;10.064;2023-04-10T04:55:33;53.17;;;28.90;;
3274;SDS011;1649;53.672;10.064;2023-04-10T04:57:58;58.50;;;30.17;;
3274;SDS011;1649;53.672;10.064;2023-04-10T05:00:24;53.70;;;28.03;;
3274;SDS011;1649;53.672;10.064;2023-04-10T05:02:50;53.97;;;27.23;;
3274;SDS011;1649;53.672;10.064;2023-04-10T05:05:15;51.60;;;27.03;;
3274;SDS011;1649;53.672;10.064;2023-04-10T05:07:41;50.60;;;28.10;;
3274;SDS011;1649;53.672;10.064;2023-04-10T05:10:06;56.20;;;27.90;;
3274;SDS011;1649;53.672;10.064;2023-04-10T05:12:32;49.13;;;26.63;;
3274;SDS011;1649;53.672;10.064;2023-04-10T05:14:58;56.03;;;29.83;;
3274;SDS011;1649;53.672;10.064;2023-04-10T05:17:24;53.30;;;28.57;;
3274;SDS011;1649;53.672;10.064;2023-04-10T05:19:49;50.23;;;27.07;;
3274;SDS011;1649;53.672;10.064;2023-04-10T05:22:15;57.43;;;28.50;;
3274;SDS011;1649;53.672;10.064;2023-04-10T05:24:40;53.30;;;30.10;;
3274;SDS011;1649;53.672;10.064;2023-04-10T05:27:06;47.70;;;27.20;;
3274;SDS011;1649;53.672;10.064;2023-04-10T05:29:31;52.43;;;28.03;;
3274;SDS011;1649;53.672;10.064;2023-04-10T05:31:57;52.10;;;28.90;;
3274;SDS011;1649;53.672;10.064;2023-04-10T05:34:22;50.40;;;28.90;;
3274;SDS011;1649;53.672;10.064;2023-04-10T05:36:48;52.13;;;28.30;;
3274;SDS011;1649;53.672;10.064;2023-04-10T05:39:13;55.70;;;29.53;;
3274;SDS011;1649;53.672;10.064;2023-04-10T05:41:39;53.00;;;27.37;;
3274;SDS011;1649;53.672;10.064;2023-04-10T05:44:05;59.47;;;28.63;;
3274;SDS011;1649;53.672;10.064;2023-04-10T05:46:30;53.87;;;29.40;;
3274;SDS011;1649;53.672;10.064;2023-04-10T05:48:56;49.03;;;28.20;;
3274;SDS011;1649;53.672;10.064;2023-04-10T05:51:22;49.27;;;26.30;;
3274;SDS011;1649;53.672;10.064;2023-04-10T05:53:47;52.67;;;28.10;;
3274;SDS011;1649;53.672;10.064;2023-04-10T05:56:14;45.83;;;26.13;;
3274;SDS011;1649;53.672;10.064;2023-04-10T05:58:39;46.13;;;26.43;;
3274;SDS011;1649;53.672;10.064;2023-04-10T06:01:05;48.40;;;27.80;;
3274;SDS011;1649;53.672;10.064;2023-04-10T06:03:31;42.63;;;24.13;;
3274;SDS011;1649;53.672;10.064;2023-04-10T06:05:59;42.70;;;23.80;;
3274;SDS011;1649;53.672;10.064;2023-04-10T06:08:26;40.87;;;24.47;;
3274;SDS011;1649;53.672;10.064;2023-04-10T06:10:52;40.03;;;23.63;;
3274;SDS011;1649;53.672;10.064;2023-04-10T06:13:17;47.13;;;25.67;;
3274;SDS011;1649;53.672;10.064;2023-04-10T06:15:43;40.57;;;23.50;;
3274;SDS011;1649;53.672;10.064;2023-04-10T06:18:08;35.60;;;20.17;;
3274;SDS011;1649;53.672;10.064;2023-04-10T06:20:34;41.07;;;23.03;;
3274;SDS011;1649;53.672;10.064;2023-04-10T06:22:59;42.80;;;25.00;;
3274;SDS011;1649;53.672;10.064;2023-04-10T06:25:25;43.47;;;24.50;;
3274;SDS011;1649;53.672;10.064;2023-04-10T06:27:51;42.00;;;23.80;;
3274;SDS011;1649;53.672;10.064;2023-04-10T06:30:16;40.33;;;23.57;;
3274;SDS011;1649;53.672;10.064;2023-04-10T06:32:42;42.00;;;24.80;;
3274;SDS011;1649;53.672;10.064;2023-04-10T06:35:07;41.07;;;25.23;;
3274;SDS011;1649;53.672;10.064;2023-04-10T06:37:33;35.70;;;24.13;;
3274;SDS011;1649;53.672;10.064;2023-04-10T06:40:00;36.33;;;23.00;;
3274;SDS011;1649;53.672;10.064;2023-04-10T06:42:28;38.33;;;24.30;;
3274;SDS011;1649;53.672;10.064;2023-04-10T06:44:56;38.40;;;22.67;;
3274;SDS011;1649;53.672;10.064;2023-04-10T06:47:21;40.23;;;22.90;;
3274;SDS011;1649;53.672;10.064;2023-04-10T06:49:47;37.83;;;24.47;;
3274;SDS011;1649;53.672;10.064;2023-04-10T06:52:12;37.27;;;23.43;;
3274;SDS011;1649;53.672;10.064;2023-04-10T06:54:38;34.20;;;23.40;;
3274;SDS011;1649;53.672;10.064;2023-04-10T06:57:04;34.53;;;22.77;;
3274;SDS011;1649;53.672;10.064;2023-04-10T06:59:30;34.00;;;22.07;;
3274;SDS011;1649;53.672;10.064;2023-04-10T07:01:58;33.93;;;22.73;;
3274;SDS011;1649;53.672;10.064;2023-04-10T07:04:24;33.87;;;23.20;;
3274;SDS011;1649;53.672;10.064;2023-04-10T07:06:49;33.43;;;21.87;;
3274;SDS011;1649;53.672;10.064;2023-04-10T07:09:15;35.00;;;21.70;;
3274;SDS011;1649;53.672;10.064;2023-04-10T07:11:40;33.67;;;22.03;;
3274;SDS011;1649;53.672;10.064;2023-04-10T07:14:06;31.50;;;20.23;;
3274;SDS011;1649;53.672;10.064;2023-04-10T07:16:31;34.70;;;21.80;;
3274;SDS011;1649;53.672;10.064;2023-04-10T07:18:56;36.20;;;22.67;;
3274;SDS011;1649;53.672;10.064;2023-04-10T07:21:22;35.97;;;22.67;;
3274;SDS011;1649;53.672;10.064;2023-04-10T07:23:47;32.00;;;21.50;;
3274;SDS011;1649;53.672;10.064;2023-04-10T07:26:13;30.33;;;18.90;;
3274;SDS011;1649;53.672;10.064;2023-04-10T07:28:39;31.17;;;21.10;;
3274;SDS011;1649;53.672;10.064;2023-04-10T07:31:05;33.37;;;22.17;;
3274;SDS011;1649;53.672;10.064;2023-04-10T07:33:31;33.20;;;21.00;;
3274;SDS011;1649;53.672;10.064;2023-04-10T07:35:57;31.93;;;21.73;;
3274;SDS011;1649;53.672;10.064;2023-04-10T07:38:23;33.50;;;21.10;;
3274;SDS011;1649;53.672;10.064;2023-04-10T07:40:54;33.40;;;22.20;;
3274;SDS011;1649;53.672;10.064;2023-04-10T07:43:20;28.60;;;19.43;;
3274;SDS011;1649;53.672;10.064;2023-04-10T07:45:45;28.73;;;20.90;;
3274;SDS011;1649;53.672;10.064;2023-04-10T07:48:11;27.70;;;20.03;;
3274;SDS011;1649;53.672;10.064;2023-04-10T07:50:37;26.43;;;18.43;;
3274;SDS011;1649;53.672;10.064;2023-04-10T07:53:02;31.10;;;21.73;;
3274;SDS011;1649;53.672;10.064;2023-04-10T07:55:31;28.37;;;19.53;;
3274;SDS011;1649;53.672;10.064;2023-04-10T07:58:07;26.23;;;17.93;;
3274;SDS011;1649;53.672;10.064;2023-04-10T08:00:33;26.80;;;18.70;;
3274;SDS011;1649;53.672;10.064;2023-04-10T08:02:58;27.10;;;19.67;;
3274;SDS011;1649;53.672;10.064;2023-04-10T08:05:24;24.80;;;18.97;;
3274;SDS011;1649;53.672;10.064;2023-04-10T08:07:50;27.53;;;19.40;;
3274;SDS011;1649;53.672;10.064;2023-04-10T08:10:16;25.63;;;18.43;;
3274;SDS011;1649;53.672;10.064;2023-04-10T08:12:41;25.07;;;18.03;;
3274;SDS011;1649;53.672;10.064;2023-04-10T08:15:07;26.27;;;19.77;;
3274;SDS011;1649;53.672;10.064;2023-04-10T08:17:32;26.90;;;19.37;;
3274;SDS011;1649;53.672;10.064;2023-04-10T08:19:59;27.30;;;19.50;;
3274;SDS011;1649;53.672;10.064;2023-04-10T08:22:24;28.40;;;19.50;;
3274;SDS011;1649;53.672;10.064;2023-04-10T08:24:50;23.83;;;18.47;;
3274;SDS011;1649;53.672;10.064;2023-04-10T08:27:15;24.83;;;18.73;;
3274;SDS011;1649;53.672;10.064;2023-04-10T08:29:41;25.73;;;20.63;;
3274;SDS011;1649;53.672;10.064;2023-04-10T08:32:07;23.37;;;18.33;;
3274;SDS011;1649;53.672;10.064;2023-04-10T08:34:32;27.23;;;18.47;;
3274;SDS011;1649;53.672;10.064;2023-04-10T08:36:58;24.40;;;18.30;;
3274;SDS011;1649;53.672;10.064;2023-04-10T08:39:24;23.93;;;18.47;;
3274;SDS011;1649;53.672;10.064;2023-04-10T08:41:49;23.60;;;17.90;;
3274;SDS011;1649;53.672;10.064;2023-04-10T08:44:15;25.37;;;18.20;;
3274;SDS011;1649;53.672;10.064;2023-04-10T08:46:41;24.03;;;17.77;;
3274;SDS011;1649;53.672;10.064;2023-04-10T08:49:16;21.10;;;17.33;;
3274;SDS011;1649;53.672;10.064;2023-04-10T08:51:57;24.27;;;17.77;;
3274;SDS011;1649;53.672;10.064;2023-04-10T08:54:27;26.83;;;19.13;;
3274;SDS011;1649;53.672;10.064;2023-04-10T08:56:54;23.93;;;18.23;;
3274;SDS011;1649;53.672;10.064;2023-04-10T08:59:20;26.20;;;18.50;;
3274;SDS011;1649;53.672;10.064;2023-04-10T09:01:46;24.60;;;18.37;;
3274;SDS011;1649;53.672;10.064;2023-04-10T09:04:12;23.40;;;17.97;;
3274;SDS011;1649;53.672;10.064;2023-04-10T09:06:38;23.33;;;17.50;;
3274;SDS011;1649;53.672;10.064;2023-04-10T09:09:07;21.13;;;16.20;;
3274;SDS011;1649;53.672;10.064;2023-04-10T09:14:23;21.47;;;16.97;;
3274;SDS011;1649;53.672;10.064;2023-04-10T09:16:51;21.63;;;17.20;;
3274;SDS011;1649;53.672;10.064;2023-04-10T09:19:30;22.10;;;16.80;;
3274;SDS011;1649;53.672;10.064;2023-04-10T09:21:56;21.83;;;16.57;;
3274;SDS011;1649;53.672;10.064;2023-04-10T09:24:22;21.90;;;17.00;;
3274;SDS011;1649;53.672;10.064;2023-04-10T09:26:48;21.97;;;15.70;;
3274;SDS011;1649;53.672;10.064;2023-04-10T09:29:17;21.37;;;16.20;;
3274;SDS011;1649;53.672;10.064;2023-04-10T09:31:43;20.80;;;15.50;;
3274;SDS011;1649;53.672;10.064;2023-04-10T09:34:16;19.20;;;15.17;;
3274;SDS011;1649;53.672;10.064;2023-04-10T09:36:43;22.97;;;15.10;;
3274;SDS011;1649;53.672;10.064;2023-04-10T09:39:17;20.87;;;14.83;;
3274;SDS011;1649;53.672;10.064;2023-04-10T09:41:52;18.33;;;14.20;;
3274;SDS011;1649;53.672;10.064;2023-04-10T09:44:31;20.63;;;15.63;;
3274;SDS011;1649;53.672;10.064;2023-04-10T09:47:14;19.97;;;14.50;;
3274;SDS011;1649;53.672;10.064;2023-04-10T09:49:45;18.20;;;13.57;;
3274;SDS011;1649;53.672;10.064;2023-04-10T09:52:22;17.23;;;13.37;;
3274;SDS011;1649;53.672;10.064;2023-04-10T09:54:50;14.97;;;11.33;;
3274;SDS011;1649;53.672;10.064;2023-04-10T09:57:16;22.77;;;14.93;;
3274;SDS011;1649;53.672;10.064;2023-04-10T09:59:47;18.33;;;13.37;;
3274;SDS011;1649;53.672;10.064;2023-04-10T10:02:17;18.93;;;12.93;;
3274;SDS011;1649;53.672;10.064;2023-04-10T10:04:45;20.60;;;14.67;;
3274;SDS011;1649;53.672;10.064;2023-04-10T10:07:12;20.10;;;14.53;;
3274;SDS011;1649;53.672;10.064;2023-04-10T10:09:42;21.23;;;14.77;;
3274;SDS011;1649;53.672;10.064;2023-04-10T10:12:11;19.37;;;13.33;;
3274;SDS011;1649;53.672;10.064;2023-04-10T10:14:45;20.13;;;15.07;;
3274;SDS011;1649;53.672;10.064;2023-04-10T10:17:17;19.60;;;14.40;;
3274;SDS011;1649;53.672;10.064;2023-04-10T10:19:52;18.60;;;14.10;;
3274;SDS011;1649;53.672;10.064;2023-04-10T10:22:24;19.43;;;14.37;;
3274;SDS011;1649;53.672;10.064;2023-04-10T10:24:50;18.43;;;14.03;;
3274;SDS011;1649;53.672;10.064;2023-04-10T10:27:20;17.60;;;13.43;;
3274;SDS011;1649;53.672;10.064;2023-04-10T10:29:48;17.00;;;13.27;;
3274;SDS011;1649;53.672;10.064;2023-04-10T10:32:16;16.90;;;13.50;;
3274;SDS011;1649;53.672;10.064;2023-04-10T10:34:42;18.63;;;13.17;;
3274;SDS011;1649;53.672;10.064;2023-04-10T10:37:08;17.60;;;12.80;;
3274;SDS011;1649;53.672;10.064;2023-04-10T10:45:15;15.70;;;11.60;;
3274;SDS011;1649;53.672;10.064;2023-04-10T10:47:53;16.03;;;11.40;;
3274;SDS011;1649;53.672;10.064;2023-04-10T10:50:19;16.90;;;11.87;;
3274;SDS011;1649;53.672;10.064;2023-04-10T10:52:49;22.53;;;13.07;;
3274;SDS011;1649;53.672;10.064;2023-04-10T10:57:53;15.53;;;10.80;;
3274;SDS011;1649;53.672;10.064;2023-04-10T11:00:20;15.20;;;11.80;;
3274;SDS011;1649;53.672;10.064;2023-04-10T11:08:16;14.80;;;9.53;;
3274;SDS011;1649;53.672;10.064;2023-04-10T11:10:58;16.00;;;11.07;;
3274;SDS011;1649;53.672;10.064;2023-04-10T11:13:26;14.10;;;9.73;;
3274;SDS011;1649;53.672;10.064;2023-04-10T11:15:53;13.47;;;9.87;;
3274;SDS011;1649;53.672;10.064;2023-04-10T11:18:58;17.93;;;10.40;;
3274;SDS011;1649;53.672;10.064;2023-04-10T11:23:36;15.43;;;10.97;;
3274;SDS011;1649;53.672;10.064;2023-04-10T11:26:03;15.17;;;10.00;;
3274;SDS011;1649;53.672;10.064;2023-04-10T11:31:21;14.53;;;10.83;;
3274;SDS011;1649;53.672;10.064;2023-04-10T11:33:48;14.23;;;10.53;;
3274;SDS011;1649;53.672;10.064;2023-04-10T11:36:20;13.50;;;9.83;;
3274;SDS011;1649;53.672;10.064;2023-04-10T11:38:55;12.90;;;9.57;;
3274;SDS011;1649;53.672;10.064;2023-04-10T11:41:30;13.10;;;9.83;;
3274;SDS011;1649;53.672;10.064;2023-04-10T11:43:57;12.60;;;9.27;;
3274;SDS011;1649;53.672;10.064;2023-04-10T11:46:24;11.90;;;7.40;;
3274;SDS011;1649;53.672;10.064;2023-04-10T11:49:00;15.33;;;8.93;;
3274;SDS011;1649;53.672;10.064;2023-04-10T11:51:27;12.60;;;9.20;;
3274;SDS011;1649;53.672;10.064;2023-04-10T11:54:04;12.83;;;8.83;;
3274;SDS011;1649;53.672;10.064;2023-04-10T11:56:31;15.63;;;9.10;;
3274;SDS011;1649;53.672;10.064;2023-04-10T11:58:57;12.23;;;8.90;;
3274;SDS011;1649;53.672;10.064;2023-04-10T12:01:22;12.90;;;8.27;;
3274;SDS011;1649;53.672;10.064;2023-04-10T12:03:48;12.00;;;8.73;;
3274;SDS011;1649;53.672;10.064;2023-04-10T12:06:14;13.00;;;8.90;;
3274;SDS011;1649;53.672;10.064;2023-04-10T12:08:43;11.20;;;8.43;;
3274;SDS011;1649;53.672;10.064;2023-04-10T12:11:11;11.77;;;8.17;;
3274;SDS011;1649;53.672;10.064;2023-04-10T12:13:37;13.57;;;9.20;;
3274;SDS011;1649;53.672;10.064;2023-04-10T12:16:06;11.00;;;8.10;;
3274;SDS011;1649;53.672;10.064;2023-04-10T12:18:33;13.50;;;9.23;;
3274;SDS011;1649;53.672;10.064;2023-04-10T12:20:59;10.60;;;7.80;;
3274;SDS011;1649;53.672;10.064;2023-04-10T12:23:26;12.27;;;7.60;;
3274;SDS011;1649;53.672;10.064;2023-04-10T12:25:53;13.07;;;9.20;;
3274;SDS011;1649;53.672;10.064;2023-04-10T12:28:34;11.50;;;7.70;;
3274;SDS011;1649;53.672;10.064;2023-04-10T12:31:01;12.10;;;8.40;;
3274;SDS011;1649;53.672;10.064;2023-04-10T12:33:27;11.33;;;7.97;;
3274;SDS011;1649;53.672;10.064;2023-04-10T12:35:53;9.57;;;6.97;;
3274;SDS011;1649;53.672;10.064;2023-04-10T12:41:00;10.17;;;7.40;;
3274;SDS011;1649;53.672;10.064;2023-04-10T12:43:32;9.60;;;6.40;;
3274;SDS011;1649;53.672;10.064;2023-04-10T12:46:02;11.63;;;6.40;;
3274;SDS011;1649;53.672;10.064;2023-04-10T12:48:28;10.53;;;7.67;;
3274;SDS011;1649;53.672;10.064;2023-04-10T12:50:54;10.70;;;7.10;;
3274;SDS011;1649;53.672;10.064;2023-04-10T12:53:20;9.87;;;6.27;;
3274;SDS011;1649;53.672;10.064;2023-04-10T12:55:59;11.10;;;7.40;;
3274;SDS011;1649;53.672;10.064;2023-04-10T12:58:26;10.13;;;6.47;;
3274;SDS011;1649;53.672;10.064;2023-04-10T13:01:02;7.63;;;4.90;;
3274;SDS011;1649;53.672;10.064;2023-04-10T13:03:30;10.33;;;6.57;;
3274;SDS011;1649;53.672;10.064;2023-04-10T13:05:57;10.00;;;6.83;;
3274;SDS011;1649;53.672;10.064;2023-04-10T13:08:23;11.90;;;6.70;;
3274;SDS011;1649;53.672;10.064;2023-04-10T13:10:49;8.27;;;5.57;;
3274;SDS011;1649;53.672;10.064;2023-04-10T13:13:30;9.43;;;5.87;;
3274;SDS011;1649;53.672;10.064;2023-04-10T13:15:56;9.60;;;6.40;;
3274;SDS011;1649;53.672;10.064;2023-04-10T13:18:23;9.97;;;6.13;;
3274;SDS011;1649;53.672;10.064;2023-04-10T13:20:49;10.90;;;5.47;;
3274;SDS011;1649;53.672;10.064;2023-04-10T13:23:14;9.13;;;5.40;;
3274;SDS011;1649;53.672;10.064;2023-04-10T13:25:40;9.17;;;6.37;;
3274;SDS011;1649;53.672;10.064;2023-04-10T13:28:06;9.33;;;5.80;;
3274;SDS011;1649;53.672;10.064;2023-04-10T13:30:35;8.97;;;5.47;;
3274;SDS011;1649;53.672;10.064;2023-04-10T13:33:02;10.03;;;5.90;;
3274;SDS011;1649;53.672;10.064;2023-04-10T13:35:28;9.70;;;6.40;;
3274;SDS011;1649;53.672;10.064;2023-04-10T13:37:53;9.97;;;6.23;;
3274;SDS011;1649;53.672;10.064;2023-04-10T13:40:19;8.67;;;5.87;;
3274;SDS011;1649;53.672;10.064;2023-04-10T13:42:45;9.93;;;5.60;;
3274;SDS011;1649;53.672;10.064;2023-04-10T13:45:12;9.67;;;6.27;;
3274;SDS011;1649;53.672;10.064;2023-04-10T13:47:37;8.70;;;5.63;;
3274;SDS011;1649;53.672;10.064;2023-04-10T13:50:03;8.17;;;5.70;;
3274;SDS011;1649;53.672;10.064;2023-04-10T13:52:32;8.13;;;4.90;;
3274;SDS011;1649;53.672;10.064;2023-04-10T13:54:58;9.30;;;6.17;;
3274;SDS011;1649;53.672;10.064;2023-04-10T13:57:23;9.90;;;5.67;;
3274;SDS011;1649;53.672;10.064;2023-04-10T13:59:49;9.53;;;6.77;;
3274;SDS011;1649;53.672;10.064;2023-04-10T14:02:15;12.63;;;5.90;;
3274;SDS011;1649;53.672;10.064;2023-04-10T14:04:40;12.40;;;6.67;;
3274;SDS011;1649;53.672;10.064;2023-04-10T14:07:07;9.97;;;6.17;;
3274;SDS011;1649;53.672;10.064;2023-04-10T14:09:36;10.87;;;6.70;;
3274;SDS011;1649;53.672;10.064;2023-04-10T14:12:02;9.67;;;6.33;;
3274;SDS011;1649;53.672;10.064;2023-04-10T14:14:28;10.17;;;6.20;;
3274;SDS011;1649;53.672;10.064;2023-04-10T14:16:53;11.80;;;6.20;;
3274;SDS011;1649;53.672;10.064;2023-04-10T14:19:19;11.13;;;6.30;;
3274;SDS011;1649;53.672;10.064;2023-04-10T14:21:45;10.27;;;6.97;;
3274;SDS011;1649;53.672;10.064;2023-04-10T14:24:10;10.60;;;7.47;;
3274;SDS011;1649;53.672;10.064;2023-04-10T14:26:36;10.00;;;6.50;;
3274;SDS011;1649;53.672;10.064;2023-04-10T14:29:01;10.73;;;6.67;;
3274;SDS011;1649;53.672;10.064;2023-04-10T14:31:27;12.53;;;7.77;;
3274;SDS011;1649;53.672;10.064;2023-04-10T14:33:52;10.60;;;6.70;;
3274;SDS011;1649;53.672;10.064;2023-04-10T14:36:18;10.17;;;7.00;;
3274;SDS011;1649;53.672;10.064;2023-04-10T14:38:43;10.70;;;5.00;;
3274;SDS011;1649;53.672;10.064;2023-04-10T14:41:09;12.07;;;7.70;;
3274;SDS011;1649;53.672;10.064;2023-04-10T14:43:35;11.70;;;8.50;;
3274;SDS011;1649;53.672;10.064;2023-04-10T14:46:01;12.60;;;8.70;;
3274;SDS011;1649;53.672;10.064;2023-04-10T14:48:27;11.23;;;8.00;;
3274;SDS011;1649;53.672;10.064;2023-04-10T14:50:52;11.57;;;8.33;;
3274;SDS011;1649;53.672;10.064;2023-04-10T14:53:20;12.93;;;8.00;;
3274;SDS011;1649;53.672;10.064;2023-04-10T14:55:47;12.30;;;8.20;;
3274;SDS011;1649;53.672;10.064;2023-04-10T14:58:12;12.47;;;8.40;;
3274;SDS011;1649;53.672;10.064;2023-04-10T15:00:38;11.00;;;8.20;;
3274;SDS011;1649;53.672;10.064;2023-04-10T15:03:04;10.47;;;8.00;;
3274;SDS011;1649;53.672;10.064;2023-04-10T15:05:30;13.13;;;8.70;;
3274;SDS011;1649;53.672;10.064;2023-04-10T15:07:56;13.33;;;9.20;;
3274;SDS011;1649;53.672;10.064;2023-04-10T15:10:21;13.03;;;7.83;;
3274;SDS011;1649;53.672;10.064;2023-04-10T15:12:47;14.00;;;9.30;;